^^
Meteo Knjazevac Station Historical Data
Daily Summary for July 17, 2022 Units:  Both    English   Metric
Daily Weekly Monthly Yearly Custom
  High: Low: Average:
Temperature: 53.8 °F /  12.1 °C 52.5 °F /  11.4 °C 53 °F /  11.7 °C
Dew Point: 53.2 °F /  11.8 °C 52.2 °F /  11.2 °C 52.7 °F /  11.5 °C
Humidity: 99% 98% 99%
Wind Speed: 8.7mph /  14km/h - 4.6mph /  7.4km/h
Wind Gust: 11mph /  17.7km/h - -
Wind- - SSE
Pressure: 29.73 in /  1006.7 hPa 29.67 in /  1004.6 hPa -
Precipitation: 0.10 in /  2.54 mm    
Historical Graphs
 
 
Tabular Data for July 17, 2022
Time Temperature Dew Point Pressure Wind Wind Speed Wind Gust Humidity Rainfall Rate (Hourly) solar Conditions
00:04 53.6 °F /  12 °C 53 °F /  11.7 °C 29.73in /  1006.7hPa South 5.8mph /  9.3km/h 5mph /  8km/h 98% 0.00in /  0mm 0 W/m2
00:09 53.4 °F /  11.9 °C 52.9 °F /  11.6 °C 29.73in /  1006.7hPa SSW 2.8mph /  4.5km/h 8mph /  12.9km/h 98% 0.00in /  0mm 0 W/m2
00:14 53.4 °F /  11.9 °C 52.9 °F /  11.6 °C 29.73in /  1006.7hPa SW 2.9mph /  4.7km/h 4mph /  6.4km/h 98% 0.00in /  0mm 0 W/m2
00:19 53.3 °F /  11.8 °C 53 °F /  11.7 °C 29.73in /  1006.7hPa WSW 3.3mph /  5.3km/h 4mph /  6.4km/h 98.6% 0.00in /  0mm 0 W/m2
00:24 53.4 °F /  11.9 °C 52.9 °F /  11.6 °C 29.73in /  1006.7hPa West 3.4mph /  5.5km/h 4mph /  6.4km/h 98.2% 0.00in /  0mm 0 W/m2
00:29 53.4 °F /  11.9 °C 52.9 °F /  11.6 °C 29.72in /  1006.3hPa WSW 3.6mph /  5.8km/h 4mph /  6.4km/h 98% 0.00in /  0mm 0 W/m2
00:34 53.5 °F /  11.9 °C 52.9 °F /  11.6 °C 29.73in /  1006.7hPa SSE 4.3mph /  6.9km/h 5mph /  8km/h 98% 0.01in /  0.25mm 0 W/m2
00:39 53.6 °F /  12 °C 53 °F /  11.7 °C 29.73in /  1006.7hPa SSE 4.6mph /  7.4km/h 6mph /  9.7km/h 98% 0.01in /  0.25mm 0 W/m2
00:44 53.5 °F /  11.9 °C 53 °F /  11.7 °C 29.73in /  1006.7hPa SSE 5.5mph /  8.9km/h 6mph /  9.7km/h 98% 0.01in /  0.25mm 0 W/m2
00:49 53.7 °F /  12.1 °C 53.1 °F /  11.7 °C 29.72in /  1006.3hPa SE 8mph /  12.9km/h 8mph /  12.9km/h 98% 0.01in /  0.25mm 0 W/m2
00:54 53.8 °F /  12.1 °C 53.2 °F /  11.8 °C 29.72in /  1006.3hPa SE 6.7mph /  10.8km/h 11mph /  17.7km/h 98% 0.01in /  0.25mm 0 W/m2
00:59 53.8 °F /  12.1 °C 53.2 °F /  11.8 °C 29.72in /  1006.3hPa SE 5.4mph /  8.7km/h 7mph /  11.3km/h 98% 0.01in /  0.25mm 0 W/m2
01:04 53.8 °F /  12.1 °C 53.2 °F /  11.8 °C 29.72in /  1006.3hPa SE 6.2mph /  10km/h 7mph /  11.3km/h 98% 0.01in /  0.25mm 0 W/m2
01:09 53.6 °F /  12 °C 53 °F /  11.7 °C 29.72in /  1006.3hPa SE 5.4mph /  8.7km/h 7mph /  11.3km/h 98% 0.01in /  0.25mm 0 W/m2
01:14 53.5 °F /  11.9 °C 53.1 °F /  11.7 °C 29.72in /  1006.3hPa SSE 4.6mph /  7.4km/h 6mph /  9.7km/h 98.7% 0.01in /  0.25mm 0 W/m2
01:19 53.4 °F /  11.9 °C 53.1 °F /  11.7 °C 29.72in /  1006.3hPa South 3.3mph /  5.3km/h 7mph /  11.3km/h 99% 0.01in /  0.25mm 0 W/m2
01:24 53.3 °F /  11.8 °C 53 °F /  11.7 °C 29.72in /  1006.3hPa South 3.7mph /  6km/h 4mph /  6.4km/h 99% 0.01in /  0.25mm 0 W/m2
01:29 53.2 °F /  11.8 °C 53 °F /  11.7 °C 29.72in /  1006.3hPa SSE 4.5mph /  7.2km/h 5mph /  8km/h 99% 0.01in /  0.25mm 0 W/m2
01:34 53.1 °F /  11.7 °C 52.8 °F /  11.6 °C 29.72in /  1006.3hPa South 3.2mph /  5.1km/h 7mph /  11.3km/h 99% 0.01in /  0.25mm 0 W/m2
01:39 53.1 °F /  11.7 °C 52.8 °F /  11.6 °C 29.72in /  1006.3hPa SSW 2.3mph /  3.7km/h 4mph /  6.4km/h 99% 0.01in /  0.25mm 0 W/m2
01:44 53.1 °F /  11.7 °C 52.8 °F /  11.6 °C 29.71in /  1006hPa SW 3.4mph /  5.5km/h 5mph /  8km/h 99% 0.00in /  0mm 0 W/m2
01:49 53 °F /  11.7 °C 52.7 °F /  11.5 °C 29.71in /  1006hPa SSW 4.3mph /  6.9km/h 4mph /  6.4km/h 99% 0.00in /  0mm 0 W/m2
01:54 53.1 °F /  11.7 °C 52.8 °F /  11.6 °C 29.71in /  1006hPa South 5.3mph /  8.5km/h 5mph /  8km/h 99% 0.00in /  0mm 0 W/m2
01:59 53.2 °F /  11.8 °C 52.9 °F /  11.6 °C 29.71in /  1006hPa South 5.1mph /  8.2km/h 7mph /  11.3km/h 99% 0.00in /  0mm 0 W/m2
02:04 53.1 °F /  11.7 °C 52.8 °F /  11.6 °C 29.71in /  1006hPa South 4.1mph /  6.6km/h 6mph /  9.7km/h 99% 0.00in /  0mm 0 W/m2
02:09 53.1 °F /  11.7 °C 52.8 °F /  11.6 °C 29.71in /  1006hPa SE 2.5mph /  4km/h 6mph /  9.7km/h 99% 0.00in /  0mm 0 W/m2
02:14 52.9 °F /  11.6 °C 52.6 °F /  11.4 °C 29.71in /  1006hPa North 2.6mph /  4.2km/h 3mph /  4.8km/h 99% 0.00in /  0mm 0 W/m2
02:19 52.9 °F /  11.6 °C 52.6 °F /  11.4 °C 29.71in /  1006hPa NE 4.3mph /  6.9km/h 5mph /  8km/h 99% 0.00in /  0mm 0 W/m2
02:24 52.9 °F /  11.6 °C 52.6 °F /  11.4 °C 29.71in /  1006hPa SSE 3.2mph /  5.1km/h 6mph /  9.7km/h 99% 0.00in /  0mm 0 W/m2
02:29 52.9 °F /  11.6 °C 52.6 °F /  11.4 °C 29.71in /  1006hPa South 3.3mph /  5.3km/h 3mph /  4.8km/h 99% 0.00in /  0mm 0 W/m2
02:34 52.9 °F /  11.6 °C 52.6 °F /  11.4 °C 29.70in /  1005.6hPa South 3.9mph /  6.3km/h 4mph /  6.4km/h 99% 0.00in /  0mm 0 W/m2
02:39 52.7 °F /  11.5 °C 52.4 °F /  11.3 °C 29.70in /  1005.6hPa SSE 3.1mph /  5km/h 5mph /  8km/h 99% 0.01in /  0.25mm 0 W/m2
02:44 52.5 °F /  11.4 °C 52.2 °F /  11.2 °C 29.70in /  1005.6hPa South 3.1mph /  5km/h 4mph /  6.4km/h 99% 0.01in /  0.25mm 0 W/m2
02:49 52.5 °F /  11.4 °C 52.2 °F /  11.2 °C 29.70in /  1005.6hPa South 4.2mph /  6.8km/h 5mph /  8km/h 99% 0.01in /  0.25mm 0 W/m2
02:54 52.7 °F /  11.5 °C 52.4 °F /  11.3 °C 29.70in /  1005.6hPa South 4.2mph /  6.8km/h 6mph /  9.7km/h 99% 0.02in /  0.51mm 0 W/m2
02:59 53 °F /  11.7 °C 52.7 °F /  11.5 °C 29.70in /  1005.6hPa South 5.6mph /  9km/h 5mph /  8km/h 99% 0.02in /  0.51mm 0 W/m2
03:04 53.1 °F /  11.7 °C 52.8 °F /  11.6 °C 29.70in /  1005.6hPa SSE 5.2mph /  8.4km/h 8mph /  12.9km/h 99% 0.02in /  0.51mm 0 W/m2
03:09 53.1 °F /  11.7 °C 52.8 °F /  11.6 °C 29.70in /  1005.6hPa SSE 6.5mph /  10.5km/h 6mph /  9.7km/h 99% 0.02in /  0.51mm 0 W/m2
03:14 53.1 °F /  11.7 °C 52.8 °F /  11.6 °C 29.70in /  1005.6hPa SE 5.2mph /  8.4km/h 8mph /  12.9km/h 99% 0.02in /  0.51mm 0 W/m2
03:19 52.9 °F /  11.6 °C 52.6 °F /  11.4 °C 29.69in /  1005.3hPa SE 4.1mph /  6.6km/h 6mph /  9.7km/h 99% 0.02in /  0.51mm 0 W/m2
03:24 52.9 °F /  11.6 °C 52.6 °F /  11.4 °C 29.69in /  1005.3hPa SE 4.8mph /  7.7km/h 6mph /  9.7km/h 99% 0.02in /  0.51mm 0 W/m2
03:29 52.9 °F /  11.6 °C 52.6 °F /  11.4 °C 29.69in /  1005.3hPa SE 5.3mph /  8.5km/h 7mph /  11.3km/h 99% 0.02in /  0.51mm 0 W/m2
03:34 53.1 °F /  11.7 °C 52.8 °F /  11.6 °C 29.69in /  1005.3hPa SSE 3.9mph /  6.3km/h 6mph /  9.7km/h 99% 0.01in /  0.25mm 0 W/m2
03:39 53.1 °F /  11.7 °C 52.8 °F /  11.6 °C 29.69in /  1005.3hPa SSE 3.6mph /  5.8km/h 6mph /  9.7km/h 99% 0.01in /  0.25mm 0 W/m2
03:44 52.9 °F /  11.6 °C 52.6 °F /  11.4 °C 29.69in /  1005.3hPa South 3.4mph /  5.5km/h 5mph /  8km/h 99% 0.01in /  0.25mm 0 W/m2
03:49 52.8 °F /  11.6 °C 52.5 °F /  11.4 °C 29.69in /  1005.3hPa South 2.6mph /  4.2km/h 4mph /  6.4km/h 99% 0.01in /  0.25mm 0 W/m2
03:54 52.6 °F /  11.4 °C 52.3 °F /  11.3 °C 29.68in /  1005hPa SE 3.2mph /  5.1km/h 3mph /  4.8km/h 99% 0.00in /  0mm 0 W/m2
03:59 52.6 °F /  11.4 °C 52.3 °F /  11.3 °C 29.68in /  1005hPa ESE 5.7mph /  9.2km/h 4.9mph /  7.9km/h 99% 0.00in /  0mm 0 W/m2
04:04 52.7 °F /  11.5 °C 52.4 °F /  11.3 °C 29.68in /  1005hPa SE 5.9mph /  9.5km/h 8mph /  12.9km/h 99% 0.00in /  0mm 0 W/m2
04:09 52.7 °F /  11.5 °C 52.4 °F /  11.3 °C 29.68in /  1005hPa SE 5.2mph /  8.4km/h 7mph /  11.3km/h 99% 0.00in /  0mm 0 W/m2
04:14 52.8 °F /  11.6 °C 52.5 °F /  11.4 °C 29.68in /  1005hPa SSE 4.8mph /  7.7km/h 6mph /  9.7km/h 99% 0.00in /  0mm 0 W/m2
04:19 52.9 °F /  11.6 °C 52.6 °F /  11.4 °C 29.68in /  1005hPa SSE 4.5mph /  7.2km/h 6mph /  9.7km/h 99% 0.01in /  0.25mm 0 W/m2
04:24 52.8 °F /  11.6 °C 52.5 °F /  11.4 °C 29.68in /  1005hPa SSE 5.5mph /  8.9km/h 5mph /  8km/h 99% 0.01in /  0.25mm 0 W/m2
04:29 52.7 °F /  11.5 °C 52.4 °F /  11.3 °C 29.68in /  1005hPa SE 8.1mph /  13km/h 7mph /  11.3km/h 99% 0.01in /  0.25mm 0 W/m2
04:34 52.9 °F /  11.6 °C 52.6 °F /  11.4 °C 29.68in /  1005hPa SE 8.7mph /  14km/h 9mph /  14.5km/h 99% 0.01in /  0.25mm 0 W/m2
04:39 52.9 °F /  11.6 °C 52.6 °F /  11.4 °C 29.68in /  1005hPa SE 6.9mph /  11.1km/h 10mph /  16.1km/h 99% 0.01in /  0.25mm 0 W/m2
04:44 52.9 °F /  11.6 °C 52.6 °F /  11.4 °C 29.68in /  1005hPa SE 5.8mph /  9.3km/h 8mph /  12.9km/h 99% 0.01in /  0.25mm 0 W/m2
04:49 52.9 °F /  11.6 °C 52.6 °F /  11.4 °C 29.68in /  1005hPa SE 6.5mph /  10.5km/h 7mph /  11.3km/h 99% 0.01in /  0.25mm 0 W/m2
04:54 53.1 °F /  11.7 °C 52.9 °F /  11.6 °C 29.68in /  1005hPa SE 8.4mph /  13.5km/h 9mph /  14.5km/h 99% 0.01in /  0.25mm 0 W/m2
04:59 53.2 °F /  11.8 °C 53 °F /  11.7 °C 29.67in /  1004.6hPa SE 5.4mph /  8.7km/h 9mph /  14.5km/h 99% 0.01in /  0.25mm 0 W/m2
05:04 53.2 °F /  11.8 °C 53 °F /  11.7 °C 29.67in /  1004.6hPa South 4.7mph /  7.6km/h 6mph /  9.7km/h 99% 0.01in /  0.25mm 0 W/m2
05:09 53.1 °F /  11.7 °C 52.8 °F /  11.6 °C 29.68in /  1005hPa South 4.6mph /  7.4km/h 6mph /  9.7km/h 99% 0.02in /  0.51mm 0 W/m2
05:14 53 °F /  11.7 °C 52.7 °F /  11.5 °C 29.68in /  1005hPa South 4.1mph /  6.6km/h 5mph /  8km/h 99% 0.02in /  0.51mm 0 W/m2
05:19 52.9 °F /  11.6 °C 52.6 °F /  11.4 °C 29.68in /  1005hPa South 3.3mph /  5.3km/h 6mph /  9.7km/h 99% 0.01in /  0.25mm 0 W/m2
05:24 52.9 °F /  11.6 °C 52.6 °F /  11.4 °C 29.68in /  1005hPa SSW 2.7mph /  4.3km/h 4mph /  6.4km/h 99% 0.01in /  0.25mm 0 W/m2
05:29 52.8 °F /  11.6 °C 52.5 °F /  11.4 °C 29.68in /  1005hPa WSW 3.4mph /  5.5km/h 3mph /  4.8km/h 99% 0.01in /  0.25mm 0 W/m2
05:34 52.8 °F /  11.6 °C 52.5 °F /  11.4 °C 29.68in /  1005hPa SSW 5.4mph /  8.7km/h 5mph /  8km/h 99% 0.01in /  0.25mm 0 W/m2
05:39 52.9 °F /  11.6 °C 52.6 °F /  11.4 °C 29.68in /  1005hPa SE 4.9mph /  7.9km/h 6mph /  9.7km/h 99% 0.01in /  0.25mm 0 W/m2
05:44 52.9 °F /  11.6 °C 52.6 °F /  11.4 °C 29.68in /  1005hPa SE 7.3mph /  11.7km/h 6mph /  9.7km/h 99% 0.01in /  0.25mm 0 W/m2
05:49 52.9 °F /  11.6 °C 52.6 °F /  11.4 °C 29.68in /  1005hPa SE 5.4mph /  8.7km/h 8mph /  12.9km/h 99% 0.02in /  0.51mm 0 W/m2
05:54 52.9 °F /  11.6 °C 52.6 °F /  11.4 °C 29.68in /  1005hPa SSE 2.7mph /  4.3km/h 6mph /  9.7km/h 99% 0.02in /  0.51mm 0 W/m2
05:59 52.8 °F /  11.6 °C 52.5 °F /  11.4 °C 29.68in /  1005hPa SSE 3.9mph /  6.3km/h 3.4mph /  5.5km/h 99% 0.03in /  0.76mm 0 W/m2
06:04 52.7 °F /  11.5 °C 52.4 °F /  11.3 °C 29.69in /  1005.3hPa SSE 3mph /  4.8km/h 5mph /  8km/h 99% 0.04in /  1.02mm 0 W/m2
06:09 52.7 °F /  11.5 °C 52.4 °F /  11.3 °C 29.70in /  1005.6hPa South 2.8mph /  4.5km/h 4mph /  6.4km/h 99% 0.05in /  1.27mm 0 W/m2
06:14 52.5 °F /  11.4 °C 52.2 °F /  11.2 °C 29.70in /  1005.6hPa WSW 7.6mph /  12.2km/h 6.7mph /  10.8km/h 99% 0.05in /  1.27mm 0 W/m2
Knjazevac, Serbia
Compliments of Weather Underground - 2 mb